Hauptseite
METAR-TAF:

METAR-TAF

Flughäfen :

Flughafen Innsbruck

Innsbruck, Österreich

Breite: 47-16N, Länge: 011-21E, Höhe: 581 m

Beobachtung

Neuester Wetterbericht von vor 42 Minuten, um 11:20 UTC
Wind 2 kt aus unterschiedlichen Richtungen
Temperatur 4°C
Luftfeuchtigkeit 75%
Luftdruck 1006 hPa
Sichtweite 10 km oder mehr
Leicht bewölkt in der Höhe von 1200 ft

METAR: LOWI 241120Z VRB02KT 9999 FEW012 04/M00 Q1006 NOSIG

Zeit: 13:02 (12:02 UTC)

Prognose

Neuester Wetterbericht von vor 47 Minuten, um 11:15 UTC
Gültige Prognose vom 24 um 12 UTC bis 25 um 12 UTC
Wind 6 kt aus Ost
Sichtweite 10 km oder mehr
Leicht bewölkt in der Höhe von 2000 ft
Übergehend zu
vom 25 um 02 UTC bis 25 um 04 UTC
Wind 8 kt aus West

TAF: LOWI 241115Z 2412/2512 10006KT 9999 FEW020 TX09/2415Z TN01/2505Z BECMG 2502/2504 27008KT

Wetterbeobachtungen und Prognosen von mehr als 4000 Flughäfen (METAR und TAF Bericht).

Die verfügbaren Stationen werden durch gelbe und rote Markierungen auf der Karte dargestellt.

Führen Sie die Maus auf sie, um den Namen der Station zu sehen.

Darauf klicken, um die Beobachtung von Wetterbeobachtungen und Prognosen zu sehen.

Um die Karte zu ändern : klicken Sie auf den grünen Tasten mit einem schwarzen Kreuz Zum Vergrößern, auf den grünen Button mit einem Gedankenstrich zu verkleinern, oder auf die grünen Pfeile für benachbarte Karten.


METAR-TAF: